Tribune, Canada
Current Conditions -  °F | °C
As of 12:15 PM on Wednesday 28 Jan 2015 (Local Time) from KD50 Reporting Station
Haze Haze  
Wind Chill: -8°   Ceiling: 300
Heat Index: -2°   Visibility: 3mi
Dew Point: -2°   Wind: 15mph
Humidity: 100%   Direction: 340°NNW
Pressure: 29.97"   Gusts: NA
Location:  49.25°N, 103.82°W
Report Text: KD50 281815Z AUTO 34013KT 3SM BR OVC003 M02/M02 A2997 RMK AO2
Loading
Personal Weather Stations






























Interactive Weather Map New forecast layout! Learn more

10-Day Weather Forecast

Advertisements
Track Severe Weather on mobile